TJSJ/SJU METAR and TAF weather

Enter ICAO airport designator
Station Type Date Time Source
TJSJ METAR 2020/01/23 17:56 UTC NOAA

TJSJ 231756Z 32017G27KT 10SM SCT020 SCT030 SCT055 28/24 A2986 RMK AO2 PK WND 32027/1749 SLP110 VCSH SE-SW 60000 T02830239 10311 20250 56018


Station Type Date Time Source
TJSJ Decoded METAR 2020/01/23 17:56 UTC NOAA

San Juan, Luis Munoz Marin International Airport, PR, United States (TJSJ) 18-27N 066-00W
Jan 23, 2020 - 12:56 PM EST / 2020.01.23 1756 UTC
Wind: from the NW (320 degrees) at 20 MPH (17 KT) gusting to 31 MPH (27 KT):0
Visibility: 10 mile(s):0
Sky conditions: partly cloudy
Temperature: 82.9 F (28.3 C)
Dew Point: 75.0 F (23.9 C)
Relative Humidity: 77%
Pressure (altimeter): 29.86 in. Hg (1011 hPa)
Pressure tendency: 0.05 inches (1.8 hPa) lower than three hours ago
ob: TJSJ 231756Z 32017G27KT 10SM SCT020 SCT030 SCT055 28/24 A2986 RMK AO2 PK WND 32027/1749 SLP110 VCSH SE-SW 60000 T02830239 10311 20250 56018
cycle: 18

Station Type Date Time Source
TJSJ TAF 2020/01/23 18:45 UTC NOAA

TAF TJSJ 231739Z 2318/2418 33012KT P6SM VCTS SCT026CB BKN040
FM240200 35010KT P6SM VCSH SCT025 BKN050
FM241500 04009KT P6SM VCSH FEW026 SCT040

Example: see airport list